Terminal Aerodrome Forecast
Issued by NWS Cleveland, OH

Home | Current Version | Previous Version | Text Only | Print | Product List | Glossary Off
Versions: 1 2 3 4 5 6 7 8 9 10 11 12 13 14 15 16 17 18 19

000
FTUS41 KCLE 271100
TAFYNG
TAF
KYNG 271128Z 2712/2812 34008KT 4SM -SN SCT009 OVC014
      TEMPO 2712/2716 2SM -SN BKN009 OVC012
     FM272100 34008KT P6SM OVC020
     FM280400 32004KT P6SM SKC=

USA.gov is the U.S. government's official web portal to all federal, state and local government web resources and services.